Time;durP1;ratioP1;P1;durP2;ratioP2;P2;SDS_P1;SDS_P2;PMS_P1;PMS_P2;Temp;Humidity;BMP_temperature;BMP_pressure;BME280_temperature;BME280_humidity;BME280_pressure;Samples;Min_cycle;Max_cycle;Signal;HPM_P1;HPM_P2
2023/08/15 00:01:13;;;;;;;4.78;2.20;;;;;;;19.20;100.00;101044.66;5112129;28;20035;-49
2023/08/15 00:03:38;;;;;;;4.85;2.45;;;;;;;19.56;100.00;101122.38;5076071;28;20395;-48
2023/08/15 00:06:03;;;;;;;6.55;2.85;;;;;;;19.30;100.00;101098.28;5091992;28;20447;-53
2023/08/15 00:08:29;;;;;;;5.13;2.35;;;;;;;19.01;100.00;101057.47;5091952;28;20509;-47
2023/08/15 00:10:54;;;;;;;6.20;2.28;;;;;;;19.35;100.00;101118.38;5091705;28;20476;-49
2023/08/15 00:13:19;;;;;;;6.15;2.03;;;;;;;19.39;100.00;101130.63;5091616;28;20650;-53
2023/08/15 00:15:44;;;;;;;7.38;2.42;;;;;;;19.38;100.00;101112.84;5091604;28;20032;-50
2023/08/15 00:18:10;;;;;;;6.45;2.15;;;;;;;19.33;100.00;101114.09;5091375;28;20081;-49
2023/08/15 00:20:35;;;;;;;6.57;2.15;;;;;;;18.92;100.00;101050.03;5091715;28;20036;-48
2023/08/15 00:23:00;;;;;;;6.20;2.20;;;;;;;19.35;100.00;101123.72;5091687;28;20028;-53
2023/08/15 00:25:26;;;;;;;10.48;3.00;;;;;;;19.19;100.00;101082.97;5073453;28;20039;-49
2023/08/15 00:27:51;;;;;;;7.78;2.75;;;;;;;19.08;100.00;101054.31;5056867;28;20039;-52
2023/08/15 00:30:17;;;;;;;6.28;2.22;;;;;;;19.40;100.00;101118.13;5091378;28;20032;-51
2023/08/15 00:32:42;;;;;;;5.70;2.70;;;;;;;18.90;100.00;101031.47;5091651;28;20112;-52
2023/08/15 00:35:10;;;;;;;4.93;2.50;;;;;;;18.95;100.00;101039.19;5073133;28;20032;-47
2023/08/15 00:37:35;;;;;;;7.07;2.80;;;;;;;19.39;100.00;101119.09;5091558;28;20489;-48
2023/08/15 00:40:01;;;;;;;8.05;2.88;;;;;;;18.91;100.00;101038.50;5091515;28;20032;-53
2023/08/15 00:42:26;;;;;;;8.55;2.47;;;;;;;19.33;100.00;101130.13;5072955;28;20044;-49
2023/08/15 00:44:52;;;;;;;9.57;2.90;;;;;;;18.77;100.00;101035.88;5090713;28;20280;-55
2023/08/15 00:47:18;;;;;;;9.05;2.67;;;;;;;18.89;100.00;101064.44;5091371;28;20039;-51
2023/08/15 00:49:44;;;;;;;9.00;2.83;;;;;;;18.86;100.00;101048.63;5058193;28;20039;-49
2023/08/15 00:52:12;;;;;;;8.15;2.30;;;;;;;19.29;100.00;101108.13;5059879;28;20034;-50
2023/08/15 00:54:38;;;;;;;7.63;2.65;;;;;;;19.26;100.00;101108.31;5076157;28;20024;-51
2023/08/15 00:57:05;;;;;;;10.70;3.40;;;;;;;18.89;100.00;101044.91;5076632;28;20390;-50
2023/08/15 00:59:30;;;;;;;7.63;2.75;;;;;;;19.28;100.00;101126.91;5077049;28;20040;-49
2023/08/15 01:01:58;;;;;;;10.80;2.58;;;;;;;19.25;100.00;101121.75;5060091;28;20092;-49
2023/08/15 01:04:23;;;;;;;9.65;2.97;;;;;;;19.20;100.00;101122.06;5076591;28;20063;-49
2023/08/15 01:06:49;;;;;;;9.73;2.58;;;;;;;19.16;100.00;101119.66;5076949;28;20071;-52
2023/08/15 01:09:14;;;;;;;9.52;3.67;;;;;;;18.58;100.00;101029.97;5094829;28;20043;-54
2023/08/15 01:11:46;;;;;;;7.80;2.67;;;;;;;19.08;100.00;101115.69;5094401;28;20033;-49
2023/08/15 01:14:14;;;;;;;8.57;2.47;;;;;;;18.91;100.00;101097.19;5076620;28;20115;-51
2023/08/15 01:16:43;;;;;;;11.50;3.20;;;;;;;18.97;100.00;101114.66;5076499;28;20120;-52
2023/08/15 01:19:36;;;;;;;11.75;2.97;;;;;;;18.57;100.00;101041.59;5076722;28;20050;-51
2023/08/15 01:22:04;;;;;;;13.15;3.58;;;;;;;18.81;100.00;101092.53;5094524;28;20402;-54
2023/08/15 01:24:30;;;;;;;8.10;3.03;;;;;;;18.74;100.00;101089.38;5076496;28;20471;-54
2023/08/15 01:26:56;;;;;;;9.80;2.72;;;;;;;18.25;100.00;101016.03;5076501;28;20051;-51
2023/08/15 01:29:21;;;;;;;4.88;2.30;;;;;;;18.65;100.00;101083.78;5076031;28;20206;-53
2023/08/15 01:31:53;;;;;;;10.20;2.55;;;;;;;18.21;100.00;101014.53;5094388;28;20032;-52
2023/08/15 01:34:25;;;;;;;9.65;3.25;;;;;;;18.52;100.00;101079.22;5076121;28;20494;-49
2023/08/15 01:37:02;;;;;;;10.45;3.08;;;;;;;18.22;100.00;101037.53;5076102;28;20073;-50
2023/08/15 01:39:29;;;;;;;16.15;3.03;;;;;;;18.14;100.00;101038.00;5094146;28;20024;-49
2023/08/15 01:41:57;;;;;;;11.10;3.50;;;;;;;17.90;100.00;100999.53;5075806;28;20059;-52
2023/08/15 01:44:22;;;;;;;10.10;3.33;;;;;;;18.00;100.00;101022.00;5075775;28;20119;-55
2023/08/15 01:46:48;;;;;;;7.38;3.08;;;;;;;18.43;100.00;101102.88;5076041;28;20099;-50
2023/08/15 01:49:14;;;;;;;13.10;3.85;;;;;;;17.95;100.00;101022.25;5075754;28;20031;-49
2023/08/15 01:51:39;;;;;;;9.07;2.90;;;;;;;18.07;100.00;101049.97;5094287;28;20058;-51
2023/08/15 01:54:04;;;;;;;9.00;3.60;;;;;;;17.78;100.00;101008.25;5093676;28;20033;-51
2023/08/15 01:56:30;;;;;;;6.13;3.13;;;;;;;18.33;100.00;101107.06;5075935;28;20115;-49
2023/08/15 01:58:55;;;;;;;10.65;3.10;;;;;;;18.38;100.00;101110.28;5093667;28;20036;-49
2023/08/15 02:01:20;;;;;;;10.20;3.75;;;;;;;17.94;100.00;101025.03;5093733;28;20082;-51
2023/08/15 02:03:46;;;;;;;9.32;3.70;;;;;;;18.36;100.00;101078.38;5075864;28;20044;-48
2023/08/15 02:06:11;;;;;;;10.10;3.97;;;;;;;18.54;100.00;101103.09;5093378;28;20068;-49
2023/08/15 02:08:36;;;;;;;12.15;3.97;;;;;;;18.21;100.00;101051.81;5093110;28;20046;-47
2023/08/15 02:11:02;;;;;;;9.15;4.03;;;;;;;18.60;100.00;101104.53;5093573;28;20036;-48
2023/08/15 02:13:30;;;;;;;12.85;4.35;;;;;;;18.63;100.00;101109.66;5075729;28;20028;-50
2023/08/15 02:15:56;;;;;;;17.88;5.40;;;;;;;18.48;100.00;101088.34;5093748;28;20168;-48
2023/08/15 02:18:27;;;;;;;10.93;4.03;;;;;;;18.57;100.00;101115.38;5075176;28;20044;-49
2023/08/15 02:20:52;;;;;;;9.70;3.67;;;;;;;18.51;100.00;101111.28;5075276;28;20114;-50
2023/08/15 02:23:18;;;;;;;13.63;4.68;;;;;;;18.02;100.00;101028.09;5093201;28;20416;-47
2023/08/15 02:25:43;;;;;;;8.90;4.13;;;;;;;17.98;100.00;101026.53;5092261;28;20128;-53
2023/08/15 02:28:08;;;;;;;10.90;4.40;;;;;;;18.36;100.00;101118.34;5093222;28;20028;-48
2023/08/15 02:30:37;;;;;;;13.35;4.75;;;;;;;18.23;100.00;101093.41;5075210;28;20035;-51
2023/08/15 02:33:03;;;;;;;10.80;4.57;;;;;;;17.10;100.00;100904.03;5075502;28;20044;-53
2023/08/15 02:35:29;;;;;;;12.20;4.28;;;;;;;18.34;100.00;101114.94;5092932;28;20117;-49
2023/08/15 02:37:54;;;;;;;11.23;4.22;;;;;;;18.19;100.00;101081.22;5092759;28;20079;-51
2023/08/15 02:40:19;;;;;;;12.65;4.28;;;;;;;18.36;100.00;101120.16;5092545;28;20032;-48
2023/08/15 02:42:45;;;;;;;12.98;4.18;;;;;;;17.93;100.00;101042.81;5092753;28;20048;-54
2023/08/15 02:45:10;;;;;;;12.90;4.25;;;;;;;18.28;100.00;101128.63;5074788;28;20032;-52
2023/08/15 02:47:35;;;;;;;13.77;4.72;;;;;;;17.81;100.00;101048.00;5092918;28;20070;-51
2023/08/15 02:50:01;;;;;;;11.93;3.78;;;;;;;18.16;100.00;101133.81;5074554;28;20441;-52
2023/08/15 02:52:26;;;;;;;11.30;4.70;;;;;;;18.12;100.00;101134.97;5092589;28;20036;-52
2023/08/15 02:54:51;;;;;;;8.65;3.55;;;;;;;18.10;100.00;101137.69;5092330;28;20047;-54
2023/08/15 02:57:17;;;;;;;8.65;3.35;;;;;;;18.03;100.00;101125.72;5092590;28;20040;-50
2023/08/15 02:59:42;;;;;;;9.50;3.90;;;;;;;17.55;100.00;101046.88;5092700;28;20039;-55
2023/08/15 03:02:09;;;;;;;8.70;3.80;;;;;;;18.07;100.00;101132.56;5092188;28;20039;-50
2023/08/15 03:04:35;;;;;;;11.02;3.63;;;;;;;18.08;100.00;101160.91;5092337;28;20043;-51
2023/08/15 03:07:00;;;;;;;7.68;3.15;;;;;;;17.97;100.00;101126.06;5092301;28;20036;-48
2023/08/15 03:09:25;;;;;;;11.15;4.18;;;;;;;17.87;100.00;101115.06;5092495;28;20036;-48
2023/08/15 03:11:51;;;;;;;9.95;3.80;;;;;;;17.92;100.00;101125.47;5091568;28;20043;-52
2023/08/15 03:14:16;;;;;;;9.00;3.75;;;;;;;18.04;100.00;101143.38;5092558;28;20032;-55
2023/08/15 03:16:42;;;;;;;9.15;3.28;;;;;;;18.04;100.00;101146.03;5092439;28;20040;-48
2023/08/15 03:19:07;;;;;;;12.70;5.50;;;;;;;17.57;100.00;101066.25;5092031;28;20036;-48
2023/08/15 03:21:32;;;;;;;9.70;4.28;;;;;;;17.94;100.00;101137.75;5074204;28;20047;-48
2023/08/15 03:23:58;;;;;;;13.35;4.80;;;;;;;17.99;100.00;101149.00;5074150;28;20121;-49
2023/08/15 03:26:25;;;;;;;10.85;4.38;;;;;;;17.99;100.00;101154.31;5092200;28;20036;-48
2023/08/15 03:28:52;;;;;;;14.07;4.95;;;;;;;17.91;100.00;101145.06;5092333;28;20125;-49
2023/08/15 03:31:17;;;;;;;10.68;5.13;;;;;;;17.91;100.00;101140.59;5091959;28;20032;-48
2023/08/15 03:33:42;;;;;;;11.55;4.82;;;;;;;17.89;100.00;101137.13;5073823;28;20039;-49
2023/08/15 03:36:08;;;;;;;13.63;5.57;;;;;;;17.88;100.00;101153.22;5091842;28;20032;-48
2023/08/15 03:38:33;;;;;;;11.57;5.50;;;;;;;17.62;100.00;101122.78;5091777;28;20118;-53
2023/08/15 03:41:06;;;;;;;14.73;5.40;;;;;;;17.81;100.00;101165.16;5092161;28;20369;-50
2023/08/15 03:43:32;;;;;;;11.45;4.90;;;;;;;17.33;100.00;101080.94;5073694;28;20079;-52
2023/08/15 03:45:58;;;;;;;14.32;5.05;;;;;;;17.74;100.00;101154.03;5091732;28;20020;-49
2023/08/15 03:48:23;;;;;;;10.63;5.03;;;;;;;17.78;100.00;101160.00;5091632;28;20050;-52
2023/08/15 03:50:48;;;;;;;10.02;5.63;;;;;;;17.35;100.00;101090.56;5091980;28;20036;-47
2023/08/15 03:53:14;;;;;;;9.70;4.88;;;;;;;17.86;100.00;101176.44;5092072;28;20512;-50
2023/08/15 03:55:39;;;;;;;10.35;4.20;;;;;;;17.84;100.00;101168.50;5091829;28;20089;-51
2023/08/15 03:58:04;;;;;;;13.88;5.00;;;;;;;17.85;100.00;101186.22;5091938;28;20086;-53
2023/08/15 04:00:30;;;;;;;13.43;4.53;;;;;;;17.86;100.00;101192.41;5091923;28;20105;-48
2023/08/15 04:02:55;;;;;;;13.60;4.38;;;;;;;17.50;100.00;101122.56;5091716;28;20036;-53
2023/08/15 04:05:20;;;;;;;12.27;4.10;;;;;;;17.92;100.00;101186.75;5073288;28;20032;-53
2023/08/15 04:07:46;;;;;;;10.80;4.28;;;;;;;17.48;100.00;101098.72;5091697;28;20456;-52
2023/08/15 04:10:13;;;;;;;13.80;4.43;;;;;;;17.94;100.00;101172.38;5091673;28;20032;-51
2023/08/15 04:12:38;;;;;;;12.45;4.32;;;;;;;17.54;100.00;101100.16;5091626;28;20055;-52
2023/08/15 04:15:04;;;;;;;11.77;4.18;;;;;;;17.98;100.00;101181.88;5089872;28;20101;-53
2023/08/15 04:17:30;;;;;;;13.10;4.25;;;;;;;17.54;100.00;101102.81;5091508;28;20036;-46
2023/08/15 04:19:55;;;;;;;13.13;3.90;;;;;;;17.56;100.00;101098.28;5091503;28;20433;-51
2023/08/15 04:22:20;;;;;;;11.65;4.25;;;;;;;18.00;100.00;101163.19;5091503;28;20067;-49
2023/08/15 04:24:46;;;;;;;11.30;4.65;;;;;;;17.96;100.00;101162.50;5093747;28;20126;-53
2023/08/15 04:27:11;;;;;;;11.02;4.18;;;;;;;17.49;100.00;101084.44;5077611;28;20126;-50
2023/08/15 04:29:36;;;;;;;14.98;4.90;;;;;;;17.85;100.00;101148.06;5077231;28;20413;-50
2023/08/15 04:32:02;;;;;;;14.50;4.97;;;;;;;17.76;100.00;101141.47;5077582;28;20058;-53
2023/08/15 04:34:27;;;;;;;10.25;4.93;;;;;;;17.93;100.00;101156.47;5095686;28;20043;-52
2023/08/15 04:36:52;;;;;;;9.00;4.38;;;;;;;17.81;100.00;101133.22;5095449;28;20080;-49
2023/08/15 04:39:18;;;;;;;17.20;5.05;;;;;;;17.93;100.00;101148.47;5094951;28;20046;-49
2023/08/15 04:41:43;;;;;;;13.50;4.68;;;;;;;17.92;100.00;101154.78;5077280;28;20110;-48
2023/08/15 04:44:10;;;;;;;14.15;4.60;;;;;;;17.90;100.00;101151.31;5077494;28;20135;-48
2023/08/15 04:46:36;;;;;;;10.40;4.35;;;;;;;17.88;100.00;101158.56;5077462;28;20077;-48
2023/08/15 04:49:01;;;;;;;16.88;4.93;;;;;;;17.76;100.00;101141.47;5077259;28;20115;-49
2023/08/15 04:51:26;;;;;;;14.13;4.45;;;;;;;17.85;100.00;101156.06;5077049;28;20035;-48
2023/08/15 04:53:52;;;;;;;20.60;4.93;;;;;;;17.43;100.00;101079.47;5095834;28;20089;-49
2023/08/15 04:56:17;;;;;;;23.75;6.07;;;;;;;17.87;100.00;101171.00;5077352;28;20081;-51
2023/08/15 04:58:42;;;;;;;12.02;4.57;;;;;;;17.42;100.00;101083.94;5095085;28;20032;-53
2023/08/15 05:01:08;;;;;;;15.95;5.90;;;;;;;17.83;100.00;101168.63;5095492;28;20032;-51
2023/08/15 05:03:33;;;;;;;16.27;5.82;;;;;;;17.93;100.00;101175.13;5095184;28;20035;-51
2023/08/15 05:05:59;;;;;;;19.30;5.07;;;;;;;17.94;100.00;101171.53;5094984;28;20060;-49
2023/08/15 05:08:24;;;;;;;13.52;5.78;;;;;;;17.99;100.00;101188.09;5095227;28;20036;-51
2023/08/15 05:10:49;;;;;;;14.23;5.22;;;;;;;17.86;100.00;101150.63;5094878;28;20040;-51
2023/08/15 05:13:15;;;;;;;13.23;5.40;;;;;;;18.13;100.00;101192.59;5095045;28;20036;-50
2023/08/15 05:15:41;;;;;;;16.00;5.28;;;;;;;18.18;100.00;101191.41;5094935;28;20483;-51
2023/08/15 05:18:06;;;;;;;13.93;5.32;;;;;;;18.12;100.00;101164.28;5094551;28;20051;-48
2023/08/15 05:20:33;;;;;;;18.67;5.28;;;;;;;18.20;100.00;101176.19;5094576;28;20144;-50
2023/08/15 05:22:59;;;;;;;13.60;5.22;;;;;;;18.34;100.00;101199.34;5094556;28;20471;-49
2023/08/15 05:25:24;;;;;;;17.00;4.90;;;;;;;18.37;100.00;101191.19;5094564;28;20696;-50
2023/08/15 05:27:52;;;;;;;14.68;5.18;;;;;;;18.38;100.00;101198.25;5094963;28;20032;-51
2023/08/15 05:30:18;;;;;;;16.15;5.72;;;;;;;18.42;100.00;101200.63;5094558;28;20489;-53
2023/08/15 05:32:43;;;;;;;11.13;4.80;;;;;;;18.46;100.00;101219.97;5094469;28;20120;-47
2023/08/15 05:35:08;;;;;;;14.93;5.32;;;;;;;18.47;100.00;101211.88;5075694;28;20055;-53
2023/08/15 05:37:34;;;;;;;12.15;4.70;;;;;;;18.08;100.00;101138.75;5094533;28;20028;-50
2023/08/15 05:39:59;;;;;;;13.38;5.28;;;;;;;18.38;100.00;101185.78;5093964;28;20487;-51
2023/08/15 05:42:24;;;;;;;11.98;5.05;;;;;;;18.14;100.00;101160.56;5075576;28;20059;-50
2023/08/15 05:44:50;;;;;;;14.85;5.13;;;;;;;18.33;100.00;101200.31;5094083;28;20482;-50
2023/08/15 05:47:15;;;;;;;12.70;4.90;;;;;;;18.44;100.00;101227.19;5094294;28;20319;-52
2023/08/15 05:49:41;;;;;;;16.10;5.57;;;;;;;17.97;100.00;101153.56;5094071;28;20475;-49
2023/08/15 05:52:07;;;;;;;12.45;5.07;;;;;;;18.35;100.00;101212.59;5094162;28;20046;-49
2023/08/15 05:54:32;;;;;;;15.48;6.18;;;;;;;18.35;100.00;101215.28;5094160;28;20032;-51
2023/08/15 05:56:58;;;;;;;16.55;6.10;;;;;;;18.35;100.00;101225.94;5094102;28;20039;-52
2023/08/15 05:59:23;;;;;;;19.83;6.82;;;;;;;18.41;100.00;101227.38;5094037;28;20059;-49
2023/08/15 06:01:49;;;;;;;15.98;6.22;;;;;;;18.46;100.00;101212.81;5093718;28;20124;-47
2023/08/15 06:04:14;;;;;;;14.80;6.18;;;;;;;18.20;100.00;101149.53;5075772;28;20364;-48
2023/08/15 06:06:39;;;;;;;15.40;6.53;;;;;;;18.62;100.00;101209.28;5093793;28;20043;-53
2023/08/15 06:09:05;;;;;;;18.38;6.18;;;;;;;18.71;100.00;101217.56;5093719;28;20032;-53
2023/08/15 06:11:30;;;;;;;16.17;6.35;;;;;;;18.76;100.00;101212.84;5093479;28;20032;-50
2023/08/15 06:13:55;;;;;;;14.50;5.75;;;;;;;18.95;100.00;101234.78;5093575;28;20028;-52
2023/08/15 06:16:21;;;;;;;15.95;5.93;;;;;;;18.98;100.00;101231.91;5075662;28;20395;-50
2023/08/15 06:18:46;;;;;;;18.05;5.50;;;;;;;18.69;100.00;101167.97;5093630;28;20467;-51
2023/08/15 06:21:12;;;;;;;11.95;4.80;;;;;;;18.98;100.00;101181.22;5093686;28;20036;-49
2023/08/15 06:23:37;;;;;;;14.13;5.53;;;;;;;19.57;100.00;101270.97;5093547;28;20024;-50
2023/08/15 06:26:02;;;;;;;11.75;4.75;;;;;;;19.25;100.00;101197.34;5093457;28;20032;-49
2023/08/15 06:28:29;;;;;;;15.60;5.90;;;;;;;19.50;100.00;101218.91;5075225;28;20527;-49
2023/08/15 06:30:54;;;;;;;15.60;5.25;;;;;;;19.97;100.00;101281.78;5093551;28;20032;-52
2023/08/15 06:33:19;;;;;;;9.98;4.05;;;;;;;19.91;100.00;101258.97;5075362;28;20024;-51
2023/08/15 06:35:45;;;;;;;11.77;5.32;;;;;;;19.70;100.00;101233.66;5093006;28;20036;-52
2023/08/15 06:38:10;;;;;;;11.40;5.78;;;;;;;19.70;100.00;101222.13;5075136;28;20040;-52
2023/08/15 06:40:35;;;;;;;16.73;5.68;;;;;;;19.73;100.00;101244.13;5074824;28;20035;-49
2023/08/15 06:43:01;;;;;;;10.02;6.00;;;;;;;19.78;100.00;101241.19;5075070;28;20036;-50
2023/08/15 06:45:27;;;;;;;14.10;5.65;;;;;;;20.33;100.00;101311.50;5093112;28;20154;-52
2023/08/15 06:47:52;;;;;;;11.07;5.93;;;;;;;19.99;100.00;101245.97;5073813;28;20028;-54
2023/08/15 06:50:18;;;;;;;17.33;7.30;;;;;;;20.07;100.00;101256.19;5075184;28;20036;-51
2023/08/15 06:52:43;;;;;;;13.93;6.05;;;;;;;20.04;100.00;101235.00;5074893;28;20036;-49
2023/08/15 06:55:09;;;;;;;14.07;6.60;;;;;;;20.00;100.00;101245.03;5092791;28;20035;-50
2023/08/15 06:57:34;;;;;;;11.70;6.95;;;;;;;19.92;100.00;101228.66;5092748;28;20138;-49
2023/08/15 07:00:00;;;;;;;14.75;6.43;;;;;;;20.16;100.00;101255.59;5074821;28;20040;-50
2023/08/15 07:02:27;;;;;;;11.07;6.88;;;;;;;20.05;100.00;101253.59;5074387;28;20051;-54
2023/08/15 07:04:52;;;;;;;10.70;6.25;;;;;;;20.51;100.00;101325.50;5092929;28;20047;-46
2023/08/15 07:07:17;;;;;;;11.02;6.50;;;;;;;20.67;100.00;101328.84;5092559;28;20040;-50
2023/08/15 07:09:44;;;;;;;12.30;6.20;;;;;;;20.55;100.00;101258.31;5092636;28;20044;-53
2023/08/15 07:12:09;;;;;;;14.18;5.80;;;;;;;21.10;100.00;101316.16;5074576;28;20036;-57
2023/08/15 07:14:35;;;;;;;12.88;5.60;;;;;;;21.47;100.00;101325.16;5092767;28;20077;-50
2023/08/15 07:17:01;;;;;;;10.48;5.75;;;;;;;21.78;100.00;101328.25;5092261;28;20068;-53
2023/08/15 07:19:27;;;;;;;14.63;5.13;;;;;;;22.01;100.00;101353.44;5092121;28;20527;-50
2023/08/15 07:21:52;;;;;;;8.55;3.50;;;;;;;21.69;100.00;101288.72;5092518;28;20035;-49
2023/08/15 07:24:18;;;;;;;8.93;3.97;;;;;;;21.98;100.00;101350.97;5092371;28;20421;-50
2023/08/15 07:26:44;;;;;;;9.50;3.92;;;;;;;21.55;100.00;101320.13;5092306;28;20100;-53
2023/08/15 07:29:09;;;;;;;11.55;3.78;;;;;;;21.57;100.00;101343.16;5091951;28;20498;-49
2023/08/15 07:31:35;;;;;;;7.60;3.33;;;;;;;21.67;100.00;101351.41;5074116;28;20043;-51
2023/08/15 07:34:00;;;;;;;11.60;3.00;;;;;;;21.24;100.00;101283.94;5092255;28;20032;-51
2023/08/15 07:36:25;;;;;;;8.43;3.33;;;;;;;21.68;100.00;101353.13;5092592;28;20132;-55
2023/08/15 07:38:50;;;;;;;10.45;3.50;;;;;;;21.32;100.00;101284.25;5091543;28;20046;-51
2023/08/15 07:41:16;;;;;;;10.82;3.88;;;;;;;21.70;100.00;101357.41;5092364;28;20032;-54
2023/08/15 07:43:41;;;;;;;9.32;3.80;;;;;;;21.29;100.00;101298.72;5092014;28;20055;-55
2023/08/15 07:46:06;;;;;;;9.88;3.70;;;;;;;21.57;100.00;101366.44;5092317;28;20028;-49
2023/08/15 07:48:32;;;;;;;6.15;3.28;;;;;;;21.43;100.00;101375.41;5091971;28;20032;-50
2023/08/15 07:50:57;;;;;;;10.68;3.75;;;;;;;21.23;100.00;101359.84;5092403;28;20130;-48
2023/08/15 07:53:23;;;;;;;9.02;4.38;;;;;;;21.06;100.00;101339.56;5092165;28;20036;-50
2023/08/15 07:55:49;;;;;;;8.20;3.70;;;;;;;21.26;100.00;101376.56;5074264;28;20188;-49
2023/08/15 07:58:14;;;;;;;11.95;3.92;;;;;;;21.20;100.00;101350.22;5091967;28;20092;-50
2023/08/15 08:00:41;;;;;;;8.15;3.40;;;;;;;21.32;100.00;101372.63;5091877;28;20036;-50
2023/08/15 08:03:07;;;;;;;9.65;3.40;;;;;;;21.34;100.00;101376.03;5073186;28;20044;-52
2023/08/15 08:05:32;;;;;;;7.25;3.83;;;;;;;21.35;100.00;101377.75;5092023;28;20032;-54
2023/08/15 08:07:58;;;;;;;9.35;3.70;;;;;;;20.94;100.00;101316.31;5091865;28;20474;-53
2023/08/15 08:10:23;;;;;;;6.43;4.10;;;;;;;21.33;100.00;101392.22;5091853;28;20117;-50
2023/08/15 08:12:48;;;;;;;9.02;4.18;;;;;;;21.20;100.00;101385.03;5091974;28;20205;-54
2023/08/15 08:15:14;;;;;;;12.52;5.18;;;;;;;20.71;100.00;101323.22;5091874;28;20032;-50
2023/08/15 08:17:39;;;;;;;9.60;4.60;;;;;;;21.09;100.00;101390.25;5092195;28;20028;-50
2023/08/15 08:20:12;;;;;;;9.27;4.82;;;;;;;21.11;100.00;101388.31;5091694;28;20028;-48
2023/08/15 08:22:37;;;;;;;8.45;5.00;;;;;;;21.17;100.00;101384.38;5091914;28;20039;-47
2023/08/15 08:25:19;;;;;;;11.43;4.93;;;;;;;20.81;100.00;101325.28;5091968;28;20443;-50
2023/08/15 08:27:45;;;;;;;7.78;4.55;;;;;;;21.26;100.00;101399.81;5091266;28;20032;-51
2023/08/15 08:30:12;;;;;;;7.28;4.18;;;;;;;21.36;100.00;101398.22;5073247;28;20035;-53
2023/08/15 08:32:37;;;;;;;10.07;4.13;;;;;;;20.85;100.00;101316.91;5073336;28;20506;-51
2023/08/15 08:35:04;;;;;;;9.02;3.97;;;;;;;20.92;100.00;101320.91;5073362;28;20031;-50
2023/08/15 08:37:29;;;;;;;8.07;4.05;;;;;;;21.28;100.00;101406.78;5091190;28;20399;-52
2023/08/15 08:39:54;;;;;;;8.32;4.65;;;;;;;21.18;100.00;101410.19;5073324;28;20025;-50
2023/08/15 08:42:20;;;;;;;5.13;3.22;;;;;;;20.70;100.00;101342.03;5090991;28;20045;-50
2023/08/15 08:44:46;;;;;;;6.38;3.33;;;;;;;21.01;100.00;101403.25;5073076;28;20040;-57
2023/08/15 08:47:12;;;;;;;4.10;3.35;;;;;;;21.20;100.00;101401.09;5073207;28;20067;-57
2023/08/15 08:49:38;;;;;;;3.45;2.30;;;;;;;21.08;100.00;101364.44;5091338;28;20043;-54
2023/08/15 08:52:04;;;;;;;2.15;1.92;;;;;;;21.03;100.00;101346.94;5072972;28;20032;-52
2023/08/15 08:54:29;;;;;;;4.68;2.08;;;;;;;21.55;100.00;101421.91;5073292;28;20440;-50
2023/08/15 08:56:55;;;;;;;4.03;2.05;;;;;;;21.49;100.00;101408.94;5091749;28;20113;-52
2023/08/15 08:59:23;;;;;;;4.57;2.03;;;;;;;21.55;100.00;101409.38;5090949;28;20043;-50
2023/08/15 09:01:48;;;;;;;4.32;2.33;;;;;;;21.35;100.00;101360.84;5073613;28;20032;-51
2023/08/15 09:04:14;;;;;;;5.97;1.98;;;;;;;21.46;100.00;101336.84;5091000;28;20399;-50
2023/08/15 09:06:39;;;;;;;3.10;1.88;;;;;;;22.20;100.00;101425.38;5073450;28;20433;-51
2023/08/15 09:09:06;;;;;;;2.42;1.83;;;;;;;22.26;100.00;101382.91;5091243;28;20459;-52
2023/08/15 09:11:33;;;;;;;3.30;1.80;;;;;;;22.47;100.00;101395.72;5093779;28;20051;-49
2023/08/15 09:14:01;;;;;;;5.18;1.80;;;;;;;22.48;100.00;101390.22;5094834;28;20487;-50
2023/08/15 09:16:27;;;;;;;3.80;1.92;;;;;;;22.76;100.00;101443.63;5076162;28;20788;-50
2023/08/15 09:18:52;;;;;;;3.30;1.75;;;;;;;22.81;100.00;101454.88;5074930;28;20031;-56
2023/08/15 09:21:17;;;;;;;2.83;1.75;;;;;;;22.48;100.00;101453.75;5100032;27;20371;-54
2023/08/15 09:23:44;;;;;;;2.13;1.75;;;;;;;21.88;100.00;101386.59;5116803;27;20055;-56
2023/08/15 09:26:14;;;;;;;3.58;1.58;;;;;;;21.76;100.00;101431.16;5114047;28;20367;-54
2023/08/15 09:28:43;;;;;;;4.43;1.55;;;;;;;21.47;100.00;101371.56;5096707;28;20413;-56
2023/08/15 09:31:10;;;;;;;2.45;1.52;;;;;;;21.97;100.00;101429.69;5094874;28;20030;-55
2023/08/15 09:33:37;;;;;;;3.90;1.17;;;;;;;22.34;100.00;101431.47;5094616;28;20543;-54
2023/08/15 09:36:05;;;;;;;2.13;1.20;;;;;;;22.69;100.00;101375.25;5094400;28;20035;-56
2023/08/15 09:38:30;;;;;;;3.83;1.33;;;;;;;23.57;100.00;101443.75;5085981;28;20034;-54
2023/08/15 09:40:56;;;;;;;0.80;0.80;;;;;;;23.67;100.00;101406.28;5078262;28;20040;-53
2023/08/15 09:43:22;;;;;;;1.90;0.93;;;;;;;23.66;100.00;101420.69;5076232;28;20071;-53
2023/08/15 09:45:48;;;;;;;1.55;0.60;;;;;;;23.71;100.00;101466.88;5076497;28;20463;-53
2023/08/15 09:48:13;;;;;;;1.88;0.75;;;;;;;23.30;100.00;101467.31;5104415;28;20132;-55
2023/08/15 09:50:41;;;;;;;1.95;0.80;;;;;;;23.12;100.00;101471.38;5114877;28;20065;-52
2023/08/15 09:53:07;;;;;;;1.52;0.63;;;;;;;22.96;100.00;101477.03;5079818;28;20027;-53
2023/08/15 09:55:34;;;;;;;2.30;1.05;;;;;;;23.21;100.00;101466.19;5104334;28;20039;-56
2023/08/15 09:58:00;;;;;;;1.05;0.70;;;;;;;23.58;100.00;101475.03;5094496;28;20028;-53
2023/08/15 10:00:25;;;;;;;1.00;0.90;;;;;;;23.75;100.00;101479.97;5109777;28;20443;-52
2023/08/15 10:03:05;;;;;;;1.55;0.95;;;;;;;23.89;100.00;101482.44;5114684;28;20036;-55
2023/08/15 10:05:32;;;;;;;5.32;1.17;;;;;;;23.69;100.00;101501.09;5114372;28;20283;-53
2023/08/15 10:07:58;;;;;;;2.47;1.10;;;;;;;23.09;100.00;101423.31;5114739;28;20058;-53
2023/08/15 10:10:24;;;;;;;1.85;1.33;;;;;;;23.13;100.00;101476.66;5114476;28;20533;-52
2023/08/15 10:12:50;;;;;;;3.08;1.23;;;;;;;22.81;100.00;101452.19;5080096;28;20137;-54
2023/08/15 10:15:16;;;;;;;2.40;1.40;;;;;;;22.91;100.00;101500.69;5095876;28;20134;-54
2023/08/15 10:17:42;;;;;;;3.58;1.50;;;;;;;22.15;100.00;101382.81;5098865;28;20475;-54
2023/08/15 10:20:10;;;;;;;4.03;1.70;;;;;;;22.89;100.00;101510.66;5114260;28;20462;-53
2023/08/15 10:22:37;;;;;;;3.40;1.80;;;;;;;22.57;100.00;101436.97;5114208;28;20035;-56
2023/08/15 10:25:24;;;;;;;2.67;1.50;;;;;;;23.20;100.00;101514.66;5095680;28;20551;-57
2023/08/15 10:27:53;;;;;;;5.47;1.30;;;;;;;23.08;100.00;101457.34;5114070;28;20050;-53
2023/08/15 10:30:29;;;;;;;2.33;1.35;;;;;;;23.10;100.00;101467.97;5094788;28;20031;-57
2023/08/15 10:32:54;;;;;;;2.63;1.27;;;;;;;23.32;100.00;101503.00;5113652;28;20039;-52
2023/08/15 10:35:26;;;;;;;3.08;1.50;;;;;;;23.41;100.00;101527.34;5113762;28;20035;-53
2023/08/15 10:37:54;;;;;;;2.40;1.52;;;;;;;22.90;100.00;101454.19;5113616;28;20047;-52
2023/08/15 10:40:20;;;;;;;3.05;1.30;;;;;;;23.21;100.00;101525.28;5085813;28;20043;-56
2023/08/15 10:43:00;;;;;;;1.98;1.15;;;;;;;22.95;100.00;101526.34;5098784;28;20052;-57
2023/08/15 10:45:26;;;;;;;2.55;1.40;;;;;;;22.80;100.00;101517.56;5093746;28;20020;-54
2023/08/15 10:47:54;;;;;;;3.22;1.40;;;;;;;22.27;100.00;101445.44;5100762;28;20050;-57
2023/08/15 10:50:22;;;;;;;3.22;1.52;;;;;;;22.37;100.00;101509.03;5112862;28;20526;-52
2023/08/15 10:52:57;;;;;;;3.47;1.17;;;;;;;22.07;100.00;101456.69;5113550;28;20088;-50
2023/08/15 10:55:28;;;;;;;2.78;1.20;;;;;;;22.37;100.00;101465.25;5095092;28;20573;-55
2023/08/15 10:57:57;;;;;;;3.33;1.30;;;;;;;22.63;100.00;101458.88;5113550;28;20463;-52
2023/08/15 11:00:23;;;;;;;2.63;1.15;;;;;;;23.25;100.00;101529.47;5102910;28;20044;-53
2023/08/15 11:02:49;;;;;;;3.53;1.40;;;;;;;22.89;100.00;101484.69;5096783;28;20040;-54
2023/08/15 11:05:15;;;;;;;7.25;1.73;;;;;;;22.97;100.00;101537.84;5058359;28;20506;-52
2023/08/15 11:07:43;;;;;;;4.60;1.45;;;;;;;23.11;100.00;101539.50;5103065;28;20067;-52
2023/08/15 11:10:08;;;;;;;3.65;1.20;;;;;;;23.25;100.00;101550.94;5094715;28;20058;-52